• Join FlightAware (Why Join?)
  • Login
  • US Flag 
01:46AM EST


 

Airport Tracker/Info


-or-


 

Live Flight TrackerFlight Track Log ✈ THY2474 ✈ 29-Apr-2013 ✈ LTBA / IST - LTAF / ADA

Flight Track Log - Related Links

Times and Time Zones

All times are in EDT time to prevent confusion due to time zone crossing. See the THY2474 flight status page for this flight to view local times or setup timezone preferences in your user account.

Time Position Orientation Groundspeed Altitude Reporting Facility
EDT Latitude Longitude Course Direction KTS MPH feet Rate Location/Type
03:23PM 40.4650 29.7262 126° Southeast  Level Estimated
03:24PM 40.4005 29.8384 127° Southeast  Level Estimated
03:25PM 40.3359 29.9503 127° Southeast  Level Estimated
03:26PM 40.2713 30.0620 127° Southeast  Level Estimated
03:27PM 40.2065 30.1736 127° Southeast  Level Estimated
03:28PM 40.1415 30.2849 127° Southeast  Level Estimated
03:29PM 40.0765 30.3960 127° Southeast  Level Estimated
03:30PM 40.0114 30.5068 127° Southeast  Level Estimated
03:31PM 39.9462 30.6175 128° Southeast  Level Estimated
03:32PM 39.8809 30.7280 128° Southeast  Level Estimated
03:33PM 39.8154 30.8382 128° Southeast  Level Estimated
03:34PM 39.7499 30.9483 128° Southeast  Level Estimated
03:35PM 39.6842 31.0581 128° Southeast  Level Estimated
03:36PM 39.6185 31.1677 128° Southeast  Level Estimated
03:37PM 39.5526 31.2771 128° Southeast  Level Estimated
03:38PM 39.4867 31.3863 128° Southeast  Level Estimated
03:39PM 39.4206 31.4953 128° Southeast  Level Estimated
03:40PM 39.3545 31.6041 128° Southeast  Level Estimated
03:41PM 39.2882 31.7127 128° Southeast  Level Estimated
03:42PM 39.2219 31.8211 128° Southeast  Level Estimated
03:43PM 39.1554 31.9292 128° Southeast  Level Estimated
03:44PM 39.0888 32.0372 128° Southeast  Level Estimated
03:45PM 39.0222 32.1450 129° Southeast  Level Estimated
03:46PM 38.9554 32.2525 129° Southeast  Level Estimated
03:47PM 38.8886 32.3599 129° Southeast  Level Estimated
03:48PM 38.8216 32.4671 129° Southeast  Level Estimated
03:49PM 38.7546 32.5740 129° Southeast  Level Estimated
03:50PM 38.6874 32.6808 129° Southeast  Level Estimated
03:51PM 38.6202 32.7873 129° Southeast  Level Estimated
03:52PM 38.5528 32.8937 129° Southeast  Level Estimated
03:53PM 38.4854 32.9999 129° Southeast  Level Estimated
03:54PM 38.4179 33.1058 129° Southeast  Level Estimated
03:55PM 38.3502 33.2116 129° Southeast  Level Estimated
03:56PM 38.2825 33.3171 129° Southeast  Level Estimated
03:57PM 38.2147 33.4225 129° Southeast  Level Estimated
03:58PM 38.1468 33.5277 129° Southeast  Level Estimated
03:59PM 38.0788 33.6326 129° Southeast  Level Estimated
04:00PM 38.0107 33.7374 129° Southeast  Level Estimated
04:01PM 37.9425 33.8420 130° Southeast  Level Estimated
04:02PM 37.8742 33.9464 130° Southeast  Level Estimated
04:03PM 37.8058 34.0506 130° Southeast  Level Estimated
04:04PM 37.7374 34.1546 130° Southeast  Level Estimated
04:05PM 37.6688 34.2584 130° Southeast  Level Estimated
04:06PM 37.6002 34.3620 130° Southeast  Level Estimated
04:07PM 37.5314 34.4655 130° Southeast  Level Estimated
04:08PM 37.4626 34.5687 130° Southeast  Level Estimated
04:09PM 37.3937 34.6717 130° Southeast  Level Estimated
04:10PM 37.3246 34.7746 130° Southeast  Level Estimated
04:11PM 37.2556 34.8773 130° Southeast  Level Estimated
04:12PM 37.1864 34.9798 130° Southeast  Level Estimated
04:13PM 37.1171 35.0821 130° Southeast  Level Estimated
04:14PM 37.0477 35.1842 130° Southeast  Level Estimated
04:15PM 36.9822 35.2804 130° Southeast  Level Estimated
04:16PM 36.9822 35.2804 202° Southwest  Level Estimated
04:17PM 36.9822 35.2804 202° Southwest  Level Estimated
04:18PM 36.9822 35.2804 202° Southwest  Level Estimated
04:19PM 36.9822 35.2804 202° Southwest  Level Estimated
04:20PM 36.9822 35.2804 202° Southwest  Level Estimated
04:21PM 36.9822 35.2804 202° Southwest  Level Estimated
04:22PM 36.9822 35.2804 202° Southwest  Level Estimated
04:23PM 36.9822 35.2804 202° Southwest  Level Estimated
04:24PM 36.9822 35.2804 202° Southwest  Level Estimated
04:25PM 36.9822 35.2804 202° Southwest  Level Estimated
04:26PM 36.9822 35.2804 202° Southwest  Level Estimated
04:27PM 36.9822 35.2804 202° Southwest  Level Estimated
04:28PM 36.9822 35.2804 202° Southwest  Level Estimated
04:29PM 36.9822 35.2804 202° Southwest  Level Estimated
04:30PM 36.9822 35.2804 202° Southwest  Level Estimated
04:31PM 36.9822 35.2804 202° Southwest  Level Estimated